Pryor, Colorado
Current Conditions -  °F | °C
As of 10:10 AM on Friday 31 Oct 2014 (Local Time) from KVTP Reporting Station
Clear Clear  
Wind Chill: 32°   Ceiling: Unl
Heat Index: 39°   Visibility: 10mi
Dew Point: 23°   Wind: 10mph
Humidity: 52%   Direction: 200°SSW
Pressure: 30.47"   Gusts: 16mph
Location:  37.6936°N, 104.772°W
Report Text: KVTP 311610Z AUTO 20009G14KT 140V290 10SM CLR 04/M05 A3047 RMK AO2
Loading
Personal Weather Stations






























Interactive Weather Map New forecast layout! Learn more

10-Day Weather Forecast

Advertisements
Track Severe Weather on mobile